Fort Monroe, Virginia
Current Conditions -  °F | °C
As of 6:59 AM on Saturday 25 Oct 2014 (Local Time) from KNGU Reporting Station
Few Clouds Few Clouds  
Wind Chill: 55°   Ceiling: Unl
Heat Index: 55°   Visibility: 10mi
Dew Point: 44°   Wind: 8mph
Humidity: 67%   Direction: 340°NNW
Pressure: 29.99"   Gusts: NA
Location:  37.01°N, 76.31°W
Report Text: KNGU 251059Z 34007KT 10SM FEW250 13/07 A2999 RMK AO2 SLP154 T01280067 $
Loading
Personal Weather Stations






























Interactive Weather Map
Tropical Storm Tracking
New forecast layout! Learn more

10-Day Weather Forecast

Advertisements
Track Severe Weather on mobile